Hogarty, Wisconsin
Current Conditions -  °F | °C
As of 11:15 AM on Wednesday 26 Nov 2014 (Local Time) from KAIG Reporting Station
Haze Haze  
Wind Chill: 17°   Ceiling: 4700
Heat Index: 17°   Visibility: 5mi
Dew Point: 17°   Wind: 0mph
Humidity: 96%   Direction: NA
Pressure: 30.1"   Gusts: NA
Location:  45.0192°N, 89.2792°W
Report Text: KAIG 261715Z AUTO 00000KT 5SM BR SCT032 BKN047 OVC080 M08/M09 A3010 RMK AO2 T10811086
Loading
Personal Weather Stations






























Interactive Weather Map New forecast layout! Learn more

10-Day Weather Forecast

Advertisements
Track Severe Weather on mobile